Pitt Meadows, Canada
Current Conditions -  °F | °C
As of 9:00 PM on Sunday 19 Oct 2014 (Local Time) from CYXX Reporting Station
Overcast Overcast  
Wind Chill: 68°   Ceiling: 8000
Heat Index: 68°   Visibility: 15mi
Dew Point: 52°   Wind: 17mph
Humidity: 56%   Direction: 170°S
Pressure: 29.65"   Gusts: 25mph
Location:  49.23°N, 122.68°W
Report Text: CYXX 200400Z 17015G22KT 15SM FEW040 BKN080 OVC140 20/11 A2965 RMK CU2AC4AC2 SLP040 DENSITY ALT 1100FT
Loading
Personal Weather Stations






























Interactive Weather Map
Tropical Storm Tracking
New forecast layout! Learn more

10-Day Weather Forecast

Advertisements
Track Severe Weather on mobile